sensor_id;sensor_type;location;lat;lon;timestamp;pressure;altitude;pressure_sealevel;temperature;humidity
63204;BME280;49297;43.210;27.914;2024-02-04T00:01:42;101407.06;;;4.85;69.28
63204;BME280;49297;43.210;27.914;2024-02-04T00:04:09;101408.66;;;4.88;69.03
63204;BME280;49297;43.210;27.914;2024-02-04T00:06:35;101397.16;;;4.90;68.84
63204;BME280;49297;43.210;27.914;2024-02-04T00:09:01;101406.63;;;4.93;68.69
63204;BME280;49297;43.210;27.914;2024-02-04T00:11:26;101402.22;;;4.93;68.68
63204;BME280;49297;43.210;27.914;2024-02-04T00:13:52;101412.72;;;4.93;68.77
63204;BME280;49297;43.210;27.914;2024-02-04T00:16:17;101403.91;;;4.94;68.48
63204;BME280;49297;43.210;27.914;2024-02-04T00:18:45;101415.94;;;4.99;68.62
63204;BME280;49297;43.210;27.914;2024-02-04T00:21:10;101409.84;;;4.98;68.55
63204;BME280;49297;43.210;27.914;2024-02-04T00:23:36;101407.31;;;4.96;68.68
63204;BME280;49297;43.210;27.914;2024-02-04T00:26:02;101404.69;;;4.96;68.51
63204;BME280;49297;43.210;27.914;2024-02-04T00:28:28;101402.41;;;4.90;68.58
63204;BME280;49297;43.210;27.914;2024-02-04T00:30:55;101410.50;;;4.86;69.38
63204;BME280;49297;43.210;27.914;2024-02-04T00:33:24;101411.53;;;4.83;69.13
63204;BME280;49297;43.210;27.914;2024-02-04T00:35:51;101407.28;;;4.81;69.62
63204;BME280;49297;43.210;27.914;2024-02-04T00:38:18;101405.78;;;4.76;69.48
63204;BME280;49297;43.210;27.914;2024-02-04T00:40:43;101406.97;;;4.71;69.99
63204;BME280;49297;43.210;27.914;2024-02-04T00:43:09;101410.56;;;4.68;70.29
63204;BME280;49297;43.210;27.914;2024-02-04T00:45:35;101402.72;;;4.68;70.43
63204;BME280;49297;43.210;27.914;2024-02-04T00:48:01;101420.75;;;4.74;70.49
63204;BME280;49297;43.210;27.914;2024-02-04T00:50:27;101404.75;;;4.79;70.61
63204;BME280;49297;43.210;27.914;2024-02-04T00:52:53;101393.06;;;4.85;70.66
63204;BME280;49297;43.210;27.914;2024-02-04T00:55:20;101386.66;;;4.90;70.71
63204;BME280;49297;43.210;27.914;2024-02-04T00:57:45;101382.91;;;4.94;71.23
63204;BME280;49297;43.210;27.914;2024-02-04T01:00:11;101372.19;;;4.99;70.77
63204;BME280;49297;43.210;27.914;2024-02-04T01:02:39;101378.78;;;5.06;70.68
63204;BME280;49297;43.210;27.914;2024-02-04T01:05:05;101381.97;;;5.11;70.68
63204;BME280;49297;43.210;27.914;2024-02-04T01:07:31;101383.00;;;5.09;71.03
63204;BME280;49297;43.210;27.914;2024-02-04T01:09:57;101384.34;;;5.16;70.86
63204;BME280;49297;43.210;27.914;2024-02-04T01:12:22;101390.63;;;5.29;71.06
63204;BME280;49297;43.210;27.914;2024-02-04T01:14:48;101395.34;;;5.39;70.43
63204;BME280;49297;43.210;27.914;2024-02-04T01:17:14;101398.63;;;5.42;70.44
63204;BME280;49297;43.210;27.914;2024-02-04T01:19:39;101396.59;;;5.47;70.14
63204;BME280;49297;43.210;27.914;2024-02-04T01:22:05;101393.09;;;5.47;70.34
63204;BME280;49297;43.210;27.914;2024-02-04T01:24:31;101394.72;;;5.49;70.03
63204;BME280;49297;43.210;27.914;2024-02-04T01:26:58;101395.66;;;5.48;70.14
63204;BME280;49297;43.210;27.914;2024-02-04T01:29:24;101382.69;;;5.45;70.33
63204;BME280;49297;43.210;27.914;2024-02-04T01:31:51;101388.50;;;5.50;70.28
63204;BME280;49297;43.210;27.914;2024-02-04T01:34:18;101379.53;;;5.55;70.19
63204;BME280;49297;43.210;27.914;2024-02-04T01:36:43;101377.59;;;5.58;70.49
63204;BME280;49297;43.210;27.914;2024-02-04T01:39:11;101377.31;;;5.63;70.33
63204;BME280;49297;43.210;27.914;2024-02-04T01:41:38;101375.34;;;5.66;70.03
63204;BME280;49297;43.210;27.914;2024-02-04T01:44:04;101368.88;;;5.72;69.99
63204;BME280;49297;43.210;27.914;2024-02-04T01:46:29;101365.41;;;5.71;69.73
63204;BME280;49297;43.210;27.914;2024-02-04T01:48:55;101357.94;;;5.80;69.90
63204;BME280;49297;43.210;27.914;2024-02-04T01:51:21;101351.63;;;5.82;69.88
63204;BME280;49297;43.210;27.914;2024-02-04T01:53:47;101342.63;;;5.86;69.33
63204;BME280;49297;43.210;27.914;2024-02-04T01:56:14;101342.03;;;5.97;69.38
63204;BME280;49297;43.210;27.914;2024-02-04T01:58:46;101344.66;;;5.97;69.42
63204;BME280;49297;43.210;27.914;2024-02-04T02:01:14;101332.34;;;5.98;69.47
63204;BME280;49297;43.210;27.914;2024-02-04T02:03:39;101327.66;;;6.03;69.34
63204;BME280;49297;43.210;27.914;2024-02-04T02:06:06;101311.59;;;6.07;69.17
63204;BME280;49297;43.210;27.914;2024-02-04T02:08:38;101317.41;;;6.13;68.90
63204;BME280;49297;43.210;27.914;2024-02-04T02:11:07;101317.81;;;6.21;68.78
63204;BME280;49297;43.210;27.914;2024-02-04T02:13:40;101307.47;;;6.18;68.64
63204;BME280;49297;43.210;27.914;2024-02-04T02:16:13;101307.56;;;6.16;68.60
63204;BME280;49297;43.210;27.914;2024-02-04T02:23:47;101309.63;;;6.11;69.01
63204;BME280;49297;43.210;27.914;2024-02-04T02:26:14;101310.38;;;6.13;68.78
63204;BME280;49297;43.210;27.914;2024-02-04T02:28:40;101308.88;;;6.09;68.78
63204;BME280;49297;43.210;27.914;2024-02-04T02:31:06;101324.00;;;6.05;69.18
63204;BME280;49297;43.210;27.914;2024-02-04T02:33:31;101315.28;;;6.05;68.99
63204;BME280;49297;43.210;27.914;2024-02-04T02:35:57;101322.31;;;6.04;68.98
63204;BME280;49297;43.210;27.914;2024-02-04T02:38:25;101325.88;;;6.03;69.22
63204;BME280;49297;43.210;27.914;2024-02-04T02:40:53;101321.53;;;6.02;69.18
63204;BME280;49297;43.210;27.914;2024-02-04T02:43:19;101319.97;;;6.00;69.02
63204;BME280;49297;43.210;27.914;2024-02-04T02:45:46;101320.06;;;5.98;69.09
63204;BME280;49297;43.210;27.914;2024-02-04T02:48:13;101316.59;;;5.98;69.09
63204;BME280;49297;43.210;27.914;2024-02-04T02:50:39;101318.47;;;5.96;69.08
63204;BME280;49297;43.210;27.914;2024-02-04T02:53:06;101324.56;;;5.96;69.30
63204;BME280;49297;43.210;27.914;2024-02-04T02:55:31;101321.84;;;5.98;69.37
63204;BME280;49297;43.210;27.914;2024-02-04T02:57:57;101328.91;;;5.97;69.20
63204;BME280;49297;43.210;27.914;2024-02-04T03:00:28;101327.94;;;5.98;69.34
63204;BME280;49297;43.210;27.914;2024-02-04T03:02:54;101336.66;;;5.99;69.31
63204;BME280;49297;43.210;27.914;2024-02-04T03:05:20;101330.56;;;5.98;69.12
63204;BME280;49297;43.210;27.914;2024-02-04T03:07:49;101333.19;;;5.98;69.39
63204;BME280;49297;43.210;27.914;2024-02-04T03:10:15;101329.56;;;6.01;69.51
63204;BME280;49297;43.210;27.914;2024-02-04T03:12:40;101328.59;;;6.02;69.55
63204;BME280;49297;43.210;27.914;2024-02-04T03:15:06;101330.38;;;6.01;69.68
63204;BME280;49297;43.210;27.914;2024-02-04T03:17:32;101335.47;;;6.04;69.85
63204;BME280;49297;43.210;27.914;2024-02-04T03:20:00;101336.31;;;6.05;69.83
63204;BME280;49297;43.210;27.914;2024-02-04T03:22:26;101333.69;;;6.05;70.19
63204;BME280;49297;43.210;27.914;2024-02-04T03:24:52;101335.34;;;6.06;70.17
63204;BME280;49297;43.210;27.914;2024-02-04T03:27:18;101329.91;;;6.09;70.86
63204;BME280;49297;43.210;27.914;2024-02-04T03:29:46;101328.03;;;6.11;70.65
63204;BME280;49297;43.210;27.914;2024-02-04T03:32:11;101324.56;;;6.10;70.47
63204;BME280;49297;43.210;27.914;2024-02-04T03:34:40;101324.47;;;6.12;70.76
63204;BME280;49297;43.210;27.914;2024-02-04T03:37:06;101324.38;;;6.14;70.71
63204;BME280;49297;43.210;27.914;2024-02-04T03:39:31;101318.25;;;6.13;70.90
63204;BME280;49297;43.210;27.914;2024-02-04T03:41:57;101331.41;;;6.13;70.87
63204;BME280;49297;43.210;27.914;2024-02-04T03:44:22;101320.06;;;6.13;70.90
63204;BME280;49297;43.210;27.914;2024-02-04T03:46:48;101329.56;;;6.15;71.14
63204;BME280;49297;43.210;27.914;2024-02-04T03:49:14;101328.78;;;6.13;71.05
63204;BME280;49297;43.210;27.914;2024-02-04T03:51:43;101321.75;;;6.14;70.87
63204;BME280;49297;43.210;27.914;2024-02-04T03:54:10;101324.47;;;6.12;71.02
63204;BME280;49297;43.210;27.914;2024-02-04T03:59:05;101321.53;;;6.17;71.68
63204;BME280;49297;43.210;27.914;2024-02-04T04:04:15;101312.63;;;6.19;71.51
63204;BME280;49297;43.210;27.914;2024-02-04T04:06:40;101308.22;;;6.20;71.42
63204;BME280;49297;43.210;27.914;2024-02-04T04:09:07;101302.59;;;6.26;71.31
63204;BME280;49297;43.210;27.914;2024-02-04T04:11:32;101302.28;;;6.31;71.19
63204;BME280;49297;43.210;27.914;2024-02-04T04:13:58;101299.47;;;6.34;71.00
63204;BME280;49297;43.210;27.914;2024-02-04T04:16:23;101305.47;;;6.36;70.64
63204;BME280;49297;43.210;27.914;2024-02-04T04:18:49;101302.75;;;6.37;70.70
63204;BME280;49297;43.210;27.914;2024-02-04T04:21:14;101291.50;;;6.35;70.74
63204;BME280;49297;43.210;27.914;2024-02-04T04:23:40;101296.56;;;6.38;70.54
63204;BME280;49297;43.210;27.914;2024-02-04T04:26:06;101297.41;;;6.39;71.10
63204;BME280;49297;43.210;27.914;2024-02-04T04:28:32;101298.16;;;6.41;70.86
63204;BME280;49297;43.210;27.914;2024-02-04T04:30:58;101300.88;;;6.39;71.00
63204;BME280;49297;43.210;27.914;2024-02-04T04:33:24;101306.22;;;6.38;71.23
63204;BME280;49297;43.210;27.914;2024-02-04T04:35:50;101312.88;;;6.43;71.11
63204;BME280;49297;43.210;27.914;2024-02-04T04:38:15;101297.00;;;6.45;71.33
63204;BME280;49297;43.210;27.914;2024-02-04T04:40:41;101288.00;;;6.49;70.99
63204;BME280;49297;43.210;27.914;2024-02-04T04:43:07;101292.97;;;6.54;70.50
63204;BME280;49297;43.210;27.914;2024-02-04T04:45:33;101291.38;;;6.51;70.66
63204;BME280;49297;43.210;27.914;2024-02-04T04:47:59;101296.53;;;6.53;70.59
63204;BME280;49297;43.210;27.914;2024-02-04T04:52:55;101300.47;;;6.60;70.67
63204;BME280;49297;43.210;27.914;2024-02-04T04:55:21;101309.84;;;6.64;70.06
63204;BME280;49297;43.210;27.914;2024-02-04T04:57:47;101302.78;;;6.64;69.99
63204;BME280;49297;43.210;27.914;2024-02-04T05:00:14;101313.13;;;6.67;70.53
63204;BME280;49297;43.210;27.914;2024-02-04T05:02:40;101304.19;;;6.70;70.33
63204;BME280;49297;43.210;27.914;2024-02-04T05:05:11;101298.00;;;6.71;70.34
63204;BME280;49297;43.210;27.914;2024-02-04T05:07:37;101304.84;;;6.74;69.88
63204;BME280;49297;43.210;27.914;2024-02-04T05:10:03;101308.44;;;6.73;69.93
63204;BME280;49297;43.210;27.914;2024-02-04T05:12:29;101295.16;;;6.74;70.05
63204;BME280;49297;43.210;27.914;2024-02-04T05:14:55;101298.53;;;6.76;69.74
63204;BME280;49297;43.210;27.914;2024-02-04T05:17:21;101301.09;;;6.78;70.17
63204;BME280;49297;43.210;27.914;2024-02-04T05:19:47;101301.81;;;6.80;69.58
63204;BME280;49297;43.210;27.914;2024-02-04T05:22:13;101320.91;;;6.83;69.49
63204;BME280;49297;43.210;27.914;2024-02-04T05:27:30;101311.56;;;6.92;69.96
63204;BME280;49297;43.210;27.914;2024-02-04T05:32:31;101305.16;;;6.96;69.40
63204;BME280;49297;43.210;27.914;2024-02-04T05:34:59;101299.69;;;6.99;69.57
63204;BME280;49297;43.210;27.914;2024-02-04T05:37:31;101298.72;;;7.00;69.43
63204;BME280;49297;43.210;27.914;2024-02-04T05:39:59;101300.88;;;7.08;69.43
63204;BME280;49297;43.210;27.914;2024-02-04T05:42:24;101296.25;;;7.12;69.37
63204;BME280;49297;43.210;27.914;2024-02-04T05:44:50;101298.03;;;7.11;69.59
63204;BME280;49297;43.210;27.914;2024-02-04T05:47:17;101292.56;;;7.14;69.41
63204;BME280;49297;43.210;27.914;2024-02-04T05:49:44;101295.94;;;7.16;68.89
63204;BME280;49297;43.210;27.914;2024-02-04T05:52:11;101298.38;;;7.19;69.16
63204;BME280;49297;43.210;27.914;2024-02-04T05:54:37;101297.44;;;7.20;69.41
63204;BME280;49297;43.210;27.914;2024-02-04T05:57:04;101303.34;;;7.24;69.49
63204;BME280;49297;43.210;27.914;2024-02-04T05:59:30;101310.09;;;7.28;68.76
63204;BME280;49297;43.210;27.914;2024-02-04T06:01:56;101312.53;;;7.31;69.00
63204;BME280;49297;43.210;27.914;2024-02-04T06:04:22;101306.09;;;7.35;68.64
63204;BME280;49297;43.210;27.914;2024-02-04T06:06:47;101306.00;;;7.37;68.99
63204;BME280;49297;43.210;27.914;2024-02-04T06:09:13;101306.00;;;7.37;68.87
63204;BME280;49297;43.210;27.914;2024-02-04T06:11:40;101304.09;;;7.39;68.59
63204;BME280;49297;43.210;27.914;2024-02-04T06:14:13;101305.56;;;7.43;68.45
63204;BME280;49297;43.210;27.914;2024-02-04T06:16:39;101300.13;;;7.46;68.49
63204;BME280;49297;43.210;27.914;2024-02-04T06:19:05;101294.84;;;7.46;68.37
63204;BME280;49297;43.210;27.914;2024-02-04T06:21:34;101300.94;;;7.47;68.37
63204;BME280;49297;43.210;27.914;2024-02-04T06:23:59;101307.91;;;7.48;68.07
63204;BME280;49297;43.210;27.914;2024-02-04T06:26:25;101314.03;;;7.48;68.35
63204;BME280;49297;43.210;27.914;2024-02-04T06:28:50;101321.00;;;7.49;68.77
63204;BME280;49297;43.210;27.914;2024-02-04T06:31:16;101324.38;;;7.51;68.57
63204;BME280;49297;43.210;27.914;2024-02-04T06:33:43;101326.91;;;7.53;68.05
63204;BME280;49297;43.210;27.914;2024-02-04T06:36:09;101315.41;;;7.54;68.68
63204;BME280;49297;43.210;27.914;2024-02-04T06:38:43;101324.06;;;7.56;68.67
63204;BME280;49297;43.210;27.914;2024-02-04T06:41:09;101324.81;;;7.58;68.13
63204;BME280;49297;43.210;27.914;2024-02-04T06:43:36;101328.06;;;7.61;68.52
63204;BME280;49297;43.210;27.914;2024-02-04T06:46:02;101321.75;;;7.64;68.24
63204;BME280;49297;43.210;27.914;2024-02-04T06:48:28;101322.56;;;7.65;68.34
63204;BME280;49297;43.210;27.914;2024-02-04T06:53:25;101322.28;;;7.69;68.14
63204;BME280;49297;43.210;27.914;2024-02-04T06:55:51;101315.09;;;7.71;68.55
63204;BME280;49297;43.210;27.914;2024-02-04T06:58:17;101316.91;;;7.71;68.62
63204;BME280;49297;43.210;27.914;2024-02-04T07:00:42;101307.84;;;7.75;68.53
63204;BME280;49297;43.210;27.914;2024-02-04T07:03:09;101308.38;;;7.80;68.23
63204;BME280;49297;43.210;27.914;2024-02-04T07:05:35;101307.19;;;7.84;68.52
63204;BME280;49297;43.210;27.914;2024-02-04T07:08:00;101310.38;;;7.89;68.14
63204;BME280;49297;43.210;27.914;2024-02-04T07:13:18;101304.25;;;8.01;67.43
63204;BME280;49297;43.210;27.914;2024-02-04T07:15:44;101303.59;;;8.11;67.60
63204;BME280;49297;43.210;27.914;2024-02-04T07:18:10;101308.25;;;8.20;67.10
63204;BME280;49297;43.210;27.914;2024-02-04T07:20:38;101309.16;;;8.32;66.88
63204;BME280;49297;43.210;27.914;2024-02-04T07:23:05;101313.91;;;8.39;66.35
63204;BME280;49297;43.210;27.914;2024-02-04T07:25:31;101321.84;;;8.52;66.63
63204;BME280;49297;43.210;27.914;2024-02-04T07:28:08;101322.63;;;8.66;66.11
63204;BME280;49297;43.210;27.914;2024-02-04T07:30:36;101324.28;;;8.80;65.59
63204;BME280;49297;43.210;27.914;2024-02-04T07:33:03;101314.84;;;8.88;65.49
63204;BME280;49297;43.210;27.914;2024-02-04T07:35:34;101317.03;;;8.94;64.98
63204;BME280;49297;43.210;27.914;2024-02-04T07:38:00;101302.56;;;9.00;64.66
63204;BME280;49297;43.210;27.914;2024-02-04T07:40:26;101294.38;;;9.03;64.62
63204;BME280;49297;43.210;27.914;2024-02-04T07:42:56;101301.25;;;9.06;65.23
63204;BME280;49297;43.210;27.914;2024-02-04T07:45:22;101302.47;;;9.13;64.28
63204;BME280;49297;43.210;27.914;2024-02-04T07:47:55;101302.47;;;9.13;64.64
63204;BME280;49297;43.210;27.914;2024-02-04T07:50:21;101300.56;;;9.15;64.14
63204;BME280;49297;43.210;27.914;2024-02-04T07:52:47;101303.00;;;9.18;64.90
63204;BME280;49297;43.210;27.914;2024-02-04T07:55:14;101321.22;;;9.21;64.05
63204;BME280;49297;43.210;27.914;2024-02-04T07:57:40;101318.25;;;9.26;64.46
63204;BME280;49297;43.210;27.914;2024-02-04T08:00:06;101308.53;;;9.26;64.18
63204;BME280;49297;43.210;27.914;2024-02-04T08:02:34;101317.28;;;9.27;63.35
63204;BME280;49297;43.210;27.914;2024-02-04T08:05:00;101326.06;;;9.27;63.69
63204;BME280;49297;43.210;27.914;2024-02-04T08:07:28;101338.72;;;9.35;63.39
63204;BME280;49297;43.210;27.914;2024-02-04T08:09:53;101329.34;;;9.31;63.62
63204;BME280;49297;43.210;27.914;2024-02-04T08:12:21;101331.97;;;9.31;64.02
63204;BME280;49297;43.210;27.914;2024-02-04T08:14:55;101340.72;;;9.31;63.71
63204;BME280;49297;43.210;27.914;2024-02-04T08:17:21;101329.84;;;9.36;63.71
63204;BME280;49297;43.210;27.914;2024-02-04T08:19:47;101327.81;;;9.40;63.18
63204;BME280;49297;43.210;27.914;2024-02-04T08:22:12;101326.94;;;9.39;63.25
63204;BME280;49297;43.210;27.914;2024-02-04T08:24:38;101314.34;;;9.43;63.32
63204;BME280;49297;43.210;27.914;2024-02-04T08:27:03;101306.91;;;9.48;63.46
63204;BME280;49297;43.210;27.914;2024-02-04T08:29:31;101303.09;;;9.52;63.09
63204;BME280;49297;43.210;27.914;2024-02-04T08:31:57;101293.97;;;9.56;63.57
63204;BME280;49297;43.210;27.914;2024-02-04T08:34:23;101299.84;;;9.60;63.32
63204;BME280;49297;43.210;27.914;2024-02-04T08:36:52;101297.81;;;9.63;62.96
63204;BME280;49297;43.210;27.914;2024-02-04T08:39:17;101306.25;;;9.68;63.03
63204;BME280;49297;43.210;27.914;2024-02-04T08:44:13;101298.44;;;9.78;63.05
63204;BME280;49297;43.210;27.914;2024-02-04T08:46:39;101297.72;;;9.87;63.01
63204;BME280;49297;43.210;27.914;2024-02-04T08:49:05;101300.84;;;9.93;62.32
63204;BME280;49297;43.210;27.914;2024-02-04T08:51:30;101291.03;;;9.95;62.52
63204;BME280;49297;43.210;27.914;2024-02-04T08:53:56;101297.88;;;9.97;62.62
63204;BME280;49297;43.210;27.914;2024-02-04T08:56:21;101291.63;;;9.98;61.91
63204;BME280;49297;43.210;27.914;2024-02-04T08:58:47;101293.41;;;9.98;61.67
63204;BME280;49297;43.210;27.914;2024-02-04T09:01:13;101283.69;;;9.98;61.96
63204;BME280;49297;43.210;27.914;2024-02-04T09:03:40;101288.97;;;9.98;62.05
63204;BME280;49297;43.210;27.914;2024-02-04T09:06:06;101283.91;;;9.95;61.65
63204;BME280;49297;43.210;27.914;2024-02-04T09:08:32;101295.00;;;10.00;61.88
63204;BME280;49297;43.210;27.914;2024-02-04T09:10:57;101294.88;;;10.02;62.15
63204;BME280;49297;43.210;27.914;2024-02-04T09:13:41;101297.84;;;10.08;61.76
63204;BME280;49297;43.210;27.914;2024-02-04T09:16:08;101291.38;;;10.13;61.63
63204;BME280;49297;43.210;27.914;2024-02-04T09:18:35;101284.88;;;10.05;61.81
63204;BME280;49297;43.210;27.914;2024-02-04T09:21:03;101287.28;;;10.08;61.24
63204;BME280;49297;43.210;27.914;2024-02-04T09:23:29;101275.03;;;10.07;61.44
63204;BME280;49297;43.210;27.914;2024-02-04T09:25:57;101274.75;;;10.10;61.57
63204;BME280;49297;43.210;27.914;2024-02-04T09:28:23;101261.19;;;10.15;61.51
63204;BME280;49297;43.210;27.914;2024-02-04T09:30:51;101262.41;;;10.11;61.19
63204;BME280;49297;43.210;27.914;2024-02-04T09:33:24;101266.81;;;10.10;61.55
63204;BME280;49297;43.210;27.914;2024-02-04T09:35:50;101261.78;;;10.07;61.84
63204;BME280;49297;43.210;27.914;2024-02-04T09:38:16;101261.69;;;10.09;61.86
63204;BME280;49297;43.210;27.914;2024-02-04T09:40:41;101254.81;;;10.06;61.52
63204;BME280;49297;43.210;27.914;2024-02-04T09:43:08;101258.28;;;10.07;61.94
63204;BME280;49297;43.210;27.914;2024-02-04T09:45:38;101254.94;;;10.05;61.79
63204;BME280;49297;43.210;27.914;2024-02-04T09:48:04;101256.25;;;9.99;61.19
63204;BME280;49297;43.210;27.914;2024-02-04T09:50:29;101241.38;;;9.98;61.82
63204;BME280;49297;43.210;27.914;2024-02-04T09:53:04;101252.53;;;10.02;61.59
63204;BME280;49297;43.210;27.914;2024-02-04T09:55:33;101237.88;;;10.09;61.18
63204;BME280;49297;43.210;27.914;2024-02-04T09:57:58;101236.41;;;10.16;61.01
63204;BME280;49297;43.210;27.914;2024-02-04T10:00:24;101232.19;;;10.25;61.15
63204;BME280;49297;43.210;27.914;2024-02-04T10:03:00;101226.50;;;10.29;61.50
63204;BME280;49297;43.210;27.914;2024-02-04T10:05:27;101218.25;;;10.34;61.01
63204;BME280;49297;43.210;27.914;2024-02-04T10:07:54;101206.19;;;10.41;61.28
63204;BME280;49297;43.210;27.914;2024-02-04T10:10:20;101215.44;;;10.47;61.02
63204;BME280;49297;43.210;27.914;2024-02-04T10:12:54;101211.22;;;10.56;61.00
63204;BME280;49297;43.210;27.914;2024-02-04T10:15:19;101201.69;;;10.64;60.35
63204;BME280;49297;43.210;27.914;2024-02-04T10:17:45;101208.03;;;10.73;59.62
63204;BME280;49297;43.210;27.914;2024-02-04T10:20:11;101212.91;;;10.89;59.02
63204;BME280;49297;43.210;27.914;2024-02-04T10:22:37;101216.31;;;11.01;58.68
63204;BME280;49297;43.210;27.914;2024-02-04T10:25:08;101204.94;;;11.10;57.73
63204;BME280;49297;43.210;27.914;2024-02-04T10:27:37;101213.09;;;11.18;57.87
63204;BME280;49297;43.210;27.914;2024-02-04T10:30:06;101203.56;;;11.37;57.98
63204;BME280;49297;43.210;27.914;2024-02-04T10:32:34;101201.31;;;11.53;57.31
63204;BME280;49297;43.210;27.914;2024-02-04T10:35:00;101202.31;;;11.62;56.86
63204;BME280;49297;43.210;27.914;2024-02-04T10:37:28;101206.84;;;11.71;56.55
63204;BME280;49297;43.210;27.914;2024-02-04T10:39:55;101203.38;;;11.80;56.29
63204;BME280;49297;43.210;27.914;2024-02-04T10:42:24;101198.06;;;11.80;56.29
63204;BME280;49297;43.210;27.914;2024-02-04T10:44:54;101203.31;;;11.92;56.04
63204;BME280;49297;43.210;27.914;2024-02-04T10:47:25;101194.09;;;11.96;55.15
63204;BME280;49297;43.210;27.914;2024-02-04T10:49:51;101187.56;;;12.00;54.90
63204;BME280;49297;43.210;27.914;2024-02-04T10:52:22;101186.16;;;12.06;54.67
63204;BME280;49297;43.210;27.914;2024-02-04T10:54:51;101182.38;;;12.08;54.74
63204;BME280;49297;43.210;27.914;2024-02-04T10:57:19;101178.22;;;12.06;54.63
63204;BME280;49297;43.210;27.914;2024-02-04T10:59:51;101187.56;;;12.10;54.80
63204;BME280;49297;43.210;27.914;2024-02-04T11:02:17;101185.22;;;12.16;54.95
63204;BME280;49297;43.210;27.914;2024-02-04T11:04:48;101179.34;;;12.23;55.25
63204;BME280;49297;43.210;27.914;2024-02-04T11:07:15;101191.38;;;12.27;55.32
63204;BME280;49297;43.210;27.914;2024-02-04T11:09:41;101179.06;;;12.26;55.12
63204;BME280;49297;43.210;27.914;2024-02-04T11:12:09;101180.34;;;12.22;55.10
63204;BME280;49297;43.210;27.914;2024-02-04T11:14:36;101164.41;;;12.22;53.92
63204;BME280;49297;43.210;27.914;2024-02-04T11:17:08;101156.19;;;12.25;53.89
63204;BME280;49297;43.210;27.914;2024-02-04T11:27:38;101175.59;;;12.25;52.89
63204;BME280;49297;43.210;27.914;2024-02-04T11:30:04;101175.72;;;12.24;52.43
63204;BME280;49297;43.210;27.914;2024-02-04T11:32:30;101167.63;;;12.25;52.43
63204;BME280;49297;43.210;27.914;2024-02-04T11:34:56;101174.75;;;12.25;52.41
63204;BME280;49297;43.210;27.914;2024-02-04T11:37:27;101167.91;;;12.22;52.21
63204;BME280;49297;43.210;27.914;2024-02-04T11:39:53;101174.03;;;12.13;52.56
63204;BME280;49297;43.210;27.914;2024-02-04T11:42:33;101181.28;;;12.11;52.50
63204;BME280;49297;43.210;27.914;2024-02-04T11:47:42;101172.47;;;12.00;52.85
63204;BME280;49297;43.210;27.914;2024-02-04T11:50:08;101179.03;;;11.96;53.26
63204;BME280;49297;43.210;27.914;2024-02-04T11:52:39;101181.56;;;11.98;53.43
63204;BME280;49297;43.210;27.914;2024-02-04T11:55:06;101176.75;;;11.92;53.64
63204;BME280;49297;43.210;27.914;2024-02-04T11:57:38;101177.06;;;11.98;53.61
63204;BME280;49297;43.210;27.914;2024-02-04T12:00:06;101188.25;;;12.02;53.35
63204;BME280;49297;43.210;27.914;2024-02-04T12:02:36;101190.78;;;12.04;53.44
63204;BME280;49297;43.210;27.914;2024-02-04T12:05:03;101183.25;;;12.09;53.29
63204;BME280;49297;43.210;27.914;2024-02-04T12:07:34;101184.34;;;12.06;53.41
63204;BME280;49297;43.210;27.914;2024-02-04T12:10:02;101186.47;;;12.12;53.50
63204;BME280;49297;43.210;27.914;2024-02-04T12:12:29;101189.25;;;12.21;53.49
63204;BME280;49297;43.210;27.914;2024-02-04T12:14:57;101191.09;;;12.20;53.61
63204;BME280;49297;43.210;27.914;2024-02-04T12:17:23;101186.34;;;12.14;53.93
63204;BME280;49297;43.210;27.914;2024-02-04T12:22:41;101175.00;;;12.12;53.40
63204;BME280;49297;43.210;27.914;2024-02-04T12:25:07;101166.91;;;12.13;53.71
63204;BME280;49297;43.210;27.914;2024-02-04T12:27:41;101173.72;;;12.06;53.60
63204;BME280;49297;43.210;27.914;2024-02-04T12:30:08;101170.69;;;12.11;53.72
63204;BME280;49297;43.210;27.914;2024-02-04T12:32:34;101163.84;;;12.18;53.69
63204;BME280;49297;43.210;27.914;2024-02-04T12:35:04;101163.41;;;12.23;53.44
63204;BME280;49297;43.210;27.914;2024-02-04T12:37:30;101156.75;;;12.28;53.57
63204;BME280;49297;43.210;27.914;2024-02-04T12:39:55;101155.75;;;12.29;53.34
63204;BME280;49297;43.210;27.914;2024-02-04T12:42:22;101144.88;;;12.32;53.27
63204;BME280;49297;43.210;27.914;2024-02-04T12:44:47;101146.69;;;12.32;53.46
63204;BME280;49297;43.210;27.914;2024-02-04T12:47:13;101145.41;;;12.36;53.40
63204;BME280;49297;43.210;27.914;2024-02-04T12:49:40;101133.81;;;12.37;53.48
63204;BME280;49297;43.210;27.914;2024-02-04T12:52:06;101136.63;;;12.35;53.48
63204;BME280;49297;43.210;27.914;2024-02-04T12:54:42;101142.22;;;12.32;53.44
63204;BME280;49297;43.210;27.914;2024-02-04T12:57:08;101140.50;;;12.31;53.56
63204;BME280;49297;43.210;27.914;2024-02-04T12:59:37;101152.13;;;12.30;53.65
63204;BME280;49297;43.210;27.914;2024-02-04T13:02:03;101141.09;;;12.25;53.44
63204;BME280;49297;43.210;27.914;2024-02-04T13:04:33;101143.75;;;12.25;53.25
63204;BME280;49297;43.210;27.914;2024-02-04T13:06:59;101141.22;;;12.24;53.30
63204;BME280;49297;43.210;27.914;2024-02-04T13:09:25;101141.91;;;12.26;52.72
63204;BME280;49297;43.210;27.914;2024-02-04T13:11:51;101141.91;;;12.26;52.68
63204;BME280;49297;43.210;27.914;2024-02-04T13:14:16;101140.09;;;12.26;52.67
63204;BME280;49297;43.210;27.914;2024-02-04T13:16:46;101132.84;;;12.28;52.62
63204;BME280;49297;43.210;27.914;2024-02-04T13:19:13;101139.13;;;12.27;52.52
63204;BME280;49297;43.210;27.914;2024-02-04T13:21:42;101137.31;;;12.28;52.78
63204;BME280;49297;43.210;27.914;2024-02-04T13:24:08;101138.16;;;12.28;52.66
63204;BME280;49297;43.210;27.914;2024-02-04T13:26:33;101141.78;;;12.27;52.97